createdAt,value
2018-10-01T00:00:20.662Z,99422.80
2018-10-01T00:03:25.396Z,99424.95
2018-10-01T00:06:30.067Z,99425.98
2018-10-01T00:09:34.668Z,99421.03
2018-10-01T00:12:39.351Z,99422.51
2018-10-01T00:15:45.338Z,99424.11
2018-10-01T00:18:49.976Z,99420.73
2018-10-01T00:22:00.371Z,99421.70
2018-10-01T00:25:05.254Z,99419.08
2018-10-01T00:28:09.852Z,99421.31
2018-10-01T00:31:14.513Z,99419.55
2018-10-01T00:34:19.339Z,99413.42
2018-10-01T00:37:23.869Z,99411.45
2018-10-01T00:40:28.428Z,99407.58
2018-10-01T00:43:33.159Z,99409.25
2018-10-01T00:46:38.444Z,99412.16
2018-10-01T00:49:43.143Z,99411.84
2018-10-01T00:52:47.824Z,99424.06
2018-10-01T00:55:52.499Z,99421.18
2018-10-01T00:58:57.147Z,99420.22
2018-10-01T01:02:01.849Z,99420.91
2018-10-01T01:05:06.656Z,99418.70
2018-10-01T01:08:11.251Z,99417.23
2018-10-01T01:11:16.288Z,99419.27
2018-10-01T01:14:20.876Z,99428.43
2018-10-01T01:17:25.501Z,99426.20
2018-10-01T01:20:30.236Z,99421.56
2018-10-01T01:23:34.989Z,99417.62
2018-10-01T01:26:39.773Z,99417.36
2018-10-01T01:29:44.392Z,99420.98
2018-10-01T01:32:48.845Z,99416.33
2018-10-01T01:35:53.455Z,99419.13
2018-10-01T01:38:57.943Z,99415.38
2018-10-01T01:42:02.531Z,99419.70
2018-10-01T01:45:07.092Z,99419.08
2018-10-01T01:48:11.618Z,99418.20
2018-10-01T01:51:16.875Z,99412.75
2018-10-01T01:54:21.465Z,99408.02
2018-10-01T01:57:26.049Z,99406.94
2018-10-01T02:00:30.567Z,99403.91
2018-10-01T02:03:35.197Z,99404.43
2018-10-01T02:06:39.751Z,99409.01
2018-10-01T02:09:44.367Z,99413.13
2018-10-01T02:12:48.905Z,99409.64
2018-10-01T02:15:53.563Z,99410.66
2018-10-01T02:18:58.050Z,99402.98
2018-10-01T02:22:02.709Z,99408.27
2018-10-01T02:25:07.386Z,99407.55
2018-10-01T02:28:11.875Z,99409.34
2018-10-01T02:31:16.553Z,99399.33
2018-10-01T02:34:21.153Z,99403.28
2018-10-01T02:37:25.764Z,99404.81
2018-10-01T02:40:30.305Z,99398.55
2018-10-01T02:43:34.835Z,99396.55
2018-10-01T02:46:39.378Z,99398.30
2018-10-01T02:49:43.825Z,99396.47
2018-10-01T02:52:53.430Z,99397.98
2018-10-01T02:55:58.092Z,99392.08
2018-10-01T02:59:02.600Z,99387.09
2018-10-01T03:02:07.215Z,99381.63
2018-10-01T03:05:11.707Z,99382.93
2018-10-01T03:08:16.443Z,99388.38
2018-10-01T03:11:20.970Z,99386.20
2018-10-01T03:14:25.481Z,99394.45
2018-10-01T03:17:30.175Z,99390.56
2018-10-01T03:20:34.734Z,99384.47
2018-10-01T03:23:39.209Z,99387.41
2018-10-01T03:26:43.774Z,99389.88
2018-10-01T03:29:48.334Z,99387.03
2018-10-01T03:32:52.789Z,99396.62
2018-10-01T03:35:57.384Z,99397.53
2018-10-01T03:39:01.865Z,99395.41
2018-10-01T03:42:06.021Z,99403.01
2018-10-01T03:45:10.635Z,99402.19
2018-10-01T03:48:15.142Z,99409.69
2018-10-01T03:51:19.622Z,99407.15
2018-10-01T03:54:24.171Z,99410.81
2018-10-01T03:57:28.607Z,99409.41
2018-10-01T04:00:33.090Z,99410.46
2018-10-01T04:03:37.585Z,99417.48
2018-10-01T04:06:42.163Z,99422.34
2018-10-01T04:09:46.872Z,99416.61
2018-10-01T04:12:51.348Z,99424.88
2018-10-01T04:15:55.963Z,99426.91
2018-10-01T04:19:00.548Z,99425.30
2018-10-01T04:22:05.016Z,99427.19
2018-10-01T04:25:11.416Z,99419.24
2018-10-01T04:28:16.103Z,99428.83
2018-10-01T04:31:20.555Z,99420.84
2018-10-01T04:34:25.248Z,99425.16
2018-10-01T04:37:29.738Z,99439.54
2018-10-01T04:40:34.324Z,99435.74
2018-10-01T04:43:38.833Z,99431.66
2018-10-01T04:46:43.419Z,99442.66
2018-10-01T04:49:47.930Z,99445.50
2018-10-01T04:52:52.568Z,99450.84
2018-10-01T04:55:57.296Z,99462.27
2018-10-01T04:59:01.795Z,99467.95
2018-10-01T05:02:06.263Z,99466.38
2018-10-01T05:05:10.911Z,99468.00
2018-10-01T05:08:15.724Z,99470.97
2018-10-01T05:11:20.393Z,99470.73
2018-10-01T05:14:24.877Z,99487.26
2018-10-01T05:17:29.380Z,99484.46
2018-10-01T05:20:33.875Z,99482.16
2018-10-01T05:23:38.337Z,99491.55
2018-10-01T05:26:42.877Z,99490.42
2018-10-01T05:29:47.477Z,99494.91
2018-10-01T05:32:51.904Z,99485.83
2018-10-01T05:35:56.401Z,99486.62
2018-10-01T05:39:00.905Z,99487.09
2018-10-01T05:42:05.427Z,99486.33
2018-10-01T05:45:09.981Z,99492.28
2018-10-01T05:48:14.554Z,99491.60
2018-10-01T05:51:19.055Z,99491.22
2018-10-01T05:54:23.657Z,99491.80
2018-10-01T05:57:28.131Z,99497.14
2018-10-01T06:00:32.594Z,99495.97
2018-10-01T06:03:37.035Z,99507.23
2018-10-01T06:06:41.595Z,99507.31
2018-10-01T06:09:46.136Z,99511.91
2018-10-01T06:12:50.592Z,99511.64
2018-10-01T06:15:55.185Z,99524.62
2018-10-01T06:18:59.717Z,99523.54
2018-10-01T06:22:04.503Z,99524.67
2018-10-01T06:25:09.251Z,99527.23
2018-10-01T06:28:13.957Z,99543.27
2018-10-01T06:31:18.407Z,99543.86
2018-10-01T06:34:22.955Z,99551.18
2018-10-01T06:37:27.398Z,99548.56
2018-10-01T06:40:31.941Z,99551.45
2018-10-01T06:43:37.001Z,99555.12
2018-10-01T06:46:41.592Z,99552.05
2018-10-01T06:49:46.134Z,99553.53
2018-10-01T06:52:50.683Z,99554.65
2018-10-01T06:55:55.404Z,99567.28
2018-10-01T06:58:59.995Z,99573.63
2018-10-01T07:02:04.581Z,99580.36
2018-10-01T07:05:09.088Z,99575.39
2018-10-01T07:08:13.706Z,99578.89
2018-10-01T07:11:18.520Z,99580.82
2018-10-01T07:14:22.996Z,99584.08
2018-10-01T07:17:27.786Z,99587.41
2018-10-01T07:20:32.639Z,99596.21
2018-10-01T07:23:37.241Z,99591.93
2018-10-01T07:26:41.672Z,99603.08
2018-10-01T07:29:46.237Z,99602.39
2018-10-01T07:32:50.899Z,99607.73
2018-10-01T07:35:55.644Z,99611.16
2018-10-01T07:39:00.124Z,99601.28
2018-10-01T07:42:04.809Z,99608.77
2018-10-01T07:45:09.339Z,99603.68
2018-10-01T07:48:13.828Z,99616.42
2018-10-01T07:51:18.622Z,99615.69
2018-10-01T07:54:23.240Z,99614.95
2018-10-01T07:57:27.733Z,99625.11
2018-10-01T08:00:32.359Z,99620.95
2018-10-01T08:03:36.928Z,99615.98
2018-10-01T08:06:41.461Z,99626.73
2018-10-01T08:09:46.169Z,99620.22
2018-10-01T08:12:51.613Z,99624.47
2018-10-01T08:15:56.283Z,99636.18
2018-10-01T08:19:00.776Z,99643.25
2018-10-01T08:22:05.539Z,99639.94
2018-10-01T08:25:10.098Z,99644.44
2018-10-01T08:28:14.693Z,99645.55
2018-10-01T08:31:19.272Z,99648.86
2018-10-01T08:34:23.851Z,99650.94
2018-10-01T08:37:28.727Z,99652.42
2018-10-01T08:40:33.175Z,99656.70
2018-10-01T08:43:37.732Z,99664.88
2018-10-01T08:46:42.515Z,99662.81
2018-10-01T08:49:56.295Z,99662.16
2018-10-01T08:53:38.487Z,99667.23
2018-10-01T08:56:42.993Z,99668.86
2018-10-01T08:59:47.694Z,99676.16
2018-10-01T09:02:52.198Z,99674.81
2018-10-01T09:05:56.716Z,99680.14
2018-10-01T09:09:01.432Z,99678.61
2018-10-01T09:12:06.044Z,99682.92
2018-10-01T09:15:10.840Z,99682.29
2018-10-01T09:18:15.532Z,99687.36
2018-10-01T09:21:20.288Z,99689.83
2018-10-01T09:24:25.760Z,99694.03
2018-10-01T09:27:30.584Z,99702.77
2018-10-01T09:30:35.164Z,99716.23
2018-10-01T09:33:39.722Z,99720.94
2018-10-01T09:36:44.328Z,99720.05
2018-10-01T09:39:48.943Z,99727.55
2018-10-01T09:42:53.568Z,99727.83
2018-10-01T09:45:58.548Z,99730.03
2018-10-01T09:49:03.314Z,99724.94
2018-10-01T09:52:08.015Z,99734.19
2018-10-01T09:55:12.891Z,99733.67
2018-10-01T09:58:17.633Z,99726.58
2018-10-01T10:01:23.437Z,99713.41
2018-10-01T10:04:28.024Z,99721.92
2018-10-01T10:07:32.638Z,99715.48
2018-10-01T10:10:37.177Z,99719.34
2018-10-01T10:13:41.862Z,99720.56
2018-10-01T10:16:46.645Z,99718.89
2018-10-01T10:19:51.077Z,99723.69
2018-10-01T10:22:55.747Z,99722.62
2018-10-01T10:26:00.259Z,99726.06
2018-10-01T10:29:04.838Z,99721.84
2018-10-01T10:32:09.470Z,99722.67
2018-10-01T10:35:13.997Z,99729.44
2018-10-01T10:38:18.749Z,99728.44
2018-10-01T10:41:23.376Z,99730.23
2018-10-01T10:44:27.964Z,99741.25
2018-10-01T10:47:32.794Z,99739.14
2018-10-01T10:50:37.776Z,99744.55
2018-10-01T10:53:42.443Z,99721.95
2018-10-01T10:56:46.906Z,99734.96
2018-10-01T10:59:51.498Z,99733.26
2018-10-01T11:02:56.054Z,99740.17
2018-10-01T11:06:01.060Z,99743.12
2018-10-01T11:09:08.368Z,99759.69
2018-10-01T11:12:12.818Z,99760.24
2018-10-01T11:15:17.498Z,99764.85
2018-10-01T11:18:21.858Z,99765.65
2018-10-01T11:21:26.490Z,99756.73
2018-10-01T11:24:30.908Z,99757.27
2018-10-01T11:27:35.355Z,99756.14
2018-10-01T11:30:39.878Z,99760.49
2018-10-01T11:33:44.598Z,99752.42
2018-10-01T11:36:49.117Z,99755.11
2018-10-01T11:39:53.642Z,99755.63
2018-10-01T11:42:58.178Z,99763.34
2018-10-01T11:46:02.760Z,99765.87
2018-10-01T11:49:07.911Z,99762.71
2018-10-01T11:52:12.375Z,99763.38
2018-10-01T11:55:16.892Z,99754.12
2018-10-01T11:58:21.459Z,99754.56
2018-10-01T12:01:26.053Z,99753.91
2018-10-01T12:04:30.711Z,99753.68
2018-10-01T12:07:35.340Z,99757.53
2018-10-01T12:10:39.944Z,99759.81
2018-10-01T12:13:44.523Z,99764.72
2018-10-01T12:16:49.147Z,99755.56
2018-10-01T12:19:53.676Z,99750.77
2018-10-01T12:22:58.348Z,99741.35
2018-10-01T12:26:02.885Z,99737.77
2018-10-01T12:29:07.652Z,99738.29
2018-10-01T12:32:13.248Z,99738.13
2018-10-01T12:35:17.834Z,99741.97
2018-10-01T12:38:22.314Z,99738.27
2018-10-01T12:41:26.942Z,99744.71
2018-10-01T12:44:31.529Z,99738.34
2018-10-01T12:47:36.082Z,99723.70
2018-10-01T12:50:41.054Z,99708.41
2018-10-01T12:53:45.784Z,99712.37
2018-10-01T12:56:50.536Z,99696.57
2018-10-01T12:59:55.281Z,99714.23
2018-10-01T13:03:00.167Z,99703.65
2018-10-01T13:06:04.909Z,99714.42
2018-10-01T13:09:12.022Z,99708.61
2018-10-01T13:12:16.741Z,99711.41
2018-10-01T13:15:21.333Z,99712.77
2018-10-01T13:18:25.919Z,99712.34
2018-10-01T13:21:30.677Z,99717.81
2018-10-01T13:24:35.466Z,99713.43
2018-10-01T13:27:40.229Z,99718.31
2018-10-01T13:30:45.167Z,99703.87
2018-10-01T13:33:49.671Z,99700.09
2018-10-01T13:36:54.250Z,99704.94
2018-10-01T13:39:58.946Z,99698.84
2018-10-01T13:43:03.503Z,99699.02
2018-10-01T13:46:08.262Z,99698.55
2018-10-01T13:49:12.820Z,99691.24
2018-10-01T13:52:18.051Z,99690.26
2018-10-01T13:55:22.984Z,99674.97
2018-10-01T13:58:29.088Z,99685.22
2018-10-01T14:01:33.728Z,99687.09
2018-10-01T14:04:38.391Z,99682.02
2018-10-01T14:07:43.055Z,99681.69
2018-10-01T14:10:47.647Z,99692.54
2018-10-01T14:13:52.222Z,99690.77
2018-10-01T14:16:56.787Z,99684.05
2018-10-01T14:20:01.503Z,99690.94
2018-10-01T14:23:05.896Z,99702.18
2018-10-01T14:26:10.406Z,99692.19
2018-10-01T14:29:14.917Z,99693.59
2018-10-01T14:32:19.771Z,99698.02
2018-10-01T14:35:24.377Z,99700.88
2018-10-01T14:38:29.616Z,99708.06
2018-10-01T14:41:34.206Z,99706.34
2018-10-01T14:44:38.778Z,99698.01
2018-10-01T14:47:43.263Z,99696.43
2018-10-01T14:50:47.896Z,99700.59
2018-10-01T14:53:52.367Z,99704.98
2018-10-01T14:56:57.042Z,99710.04
2018-10-01T15:00:01.707Z,99710.36
2018-10-01T15:03:06.200Z,99708.23
2018-10-01T15:06:10.655Z,99709.50
2018-10-01T15:09:15.325Z,99701.39
2018-10-01T15:12:19.983Z,99722.19
2018-10-01T15:15:24.600Z,99738.12
2018-10-01T15:18:29.191Z,99762.96
2018-10-01T15:21:33.671Z,99794.80
2018-10-01T15:24:38.227Z,99782.61
2018-10-01T15:27:42.738Z,99773.58
2018-10-01T15:30:47.246Z,99777.95
2018-10-01T15:33:51.830Z,99773.45
2018-10-01T15:36:56.368Z,99776.28
2018-10-01T15:40:00.884Z,99783.91
2018-10-01T15:43:05.446Z,99794.09
2018-10-01T15:46:10.075Z,99790.48
2018-10-01T15:49:14.564Z,99795.44
2018-10-01T15:52:19.147Z,99801.72
2018-10-01T15:55:23.673Z,99801.31
2018-10-01T15:58:28.323Z,99808.78
2018-10-01T16:01:33.160Z,99809.02
2018-10-01T16:04:37.733Z,99815.80
2018-10-01T16:07:42.219Z,99813.19
2018-10-01T16:10:46.798Z,99819.41
2018-10-01T16:13:51.311Z,99821.38
2018-10-01T16:16:56.184Z,99822.55
2018-10-01T16:20:00.726Z,99829.12
2018-10-01T16:23:05.359Z,99833.94
2018-10-01T16:26:09.854Z,99844.66
2018-10-01T16:29:14.554Z,99845.95
2018-10-01T16:32:19.055Z,99861.75
2018-10-01T16:35:23.803Z,99859.05
2018-10-01T16:38:28.299Z,99866.91
2018-10-01T16:41:32.845Z,99877.30
2018-10-01T16:44:37.335Z,99885.30
2018-10-01T16:47:41.812Z,99890.11
2018-10-01T16:50:46.315Z,99898.83
2018-10-01T16:53:50.867Z,99905.28
2018-10-01T16:56:55.383Z,99906.27
2018-10-01T16:59:59.841Z,99916.09
2018-10-01T17:03:04.428Z,99915.15
2018-10-01T17:06:08.970Z,99926.80
2018-10-01T17:09:13.544Z,99928.05
2018-10-01T17:12:18.143Z,99939.56
2018-10-01T17:15:22.748Z,99935.27
2018-10-01T17:18:27.181Z,99945.20
2018-10-01T17:21:31.981Z,99953.34
2018-10-01T17:24:36.557Z,99961.86
2018-10-01T17:27:41.101Z,99967.00
2018-10-01T17:30:45.867Z,99971.87
2018-10-01T17:33:50.608Z,99982.69
2018-10-01T17:36:55.163Z,99983.51
2018-10-01T17:39:59.722Z,99992.95
2018-10-01T17:43:04.224Z,100003.13
2018-10-01T17:46:08.763Z,100005.72
2018-10-01T17:49:13.370Z,100006.53
2018-10-01T17:52:18.189Z,100004.35
2018-10-01T17:55:22.924Z,100012.35
2018-10-01T17:58:27.401Z,100008.83
2018-10-01T18:01:31.913Z,100009.86
2018-10-01T18:04:36.518Z,100018.68
2018-10-01T18:07:41.388Z,100021.67
2018-10-01T18:10:46.019Z,100027.57
2018-10-01T18:13:50.592Z,100036.81
2018-10-01T18:16:55.162Z,100029.95
2018-10-01T18:19:59.699Z,100038.07
2018-10-01T18:23:04.251Z,100042.31
2018-10-01T18:26:09.748Z,100041.99
2018-10-01T18:29:14.223Z,100043.85
2018-10-01T18:32:18.789Z,100066.97
2018-10-01T18:35:23.554Z,100065.11
2018-10-01T18:38:28.075Z,100066.84
2018-10-01T18:41:32.683Z,100074.27
2018-10-01T18:44:37.431Z,100068.64
2018-10-01T18:47:42.038Z,100064.16
2018-10-01T18:50:46.537Z,100076.69
2018-10-01T18:53:51.036Z,100077.50
2018-10-01T18:56:55.547Z,100079.95
2018-10-01T19:00:00.581Z,100079.72
2018-10-01T19:03:07.152Z,100080.69
2018-10-01T19:06:12.028Z,100084.87
2018-10-01T19:09:16.409Z,100087.73
2018-10-01T19:12:20.945Z,100090.05
2018-10-01T19:15:25.520Z,100084.55
2018-10-01T19:18:30.024Z,100094.06
2018-10-01T19:21:34.748Z,100094.65
2018-10-01T19:24:39.303Z,100085.98
2018-10-01T19:27:43.978Z,100092.33
2018-10-01T19:30:48.611Z,100092.55
2018-10-01T19:33:54.252Z,100102.91
2018-10-01T19:36:59.003Z,100110.58
2018-10-01T19:40:03.606Z,100111.02
2018-10-01T19:43:08.098Z,100110.27
2018-10-01T19:46:13.844Z,100114.66
2018-10-01T19:49:18.584Z,100115.56
2018-10-01T19:52:23.186Z,100125.88
2018-10-01T19:55:27.740Z,100120.62
2018-10-01T19:58:32.291Z,100127.73
2018-10-01T20:01:36.888Z,100126.05
2018-10-01T20:04:41.401Z,100132.16
2018-10-01T20:07:46.098Z,100136.23
2018-10-01T20:10:50.677Z,100146.81
2018-10-01T20:13:55.222Z,100153.05
2018-10-01T20:16:59.842Z,100158.17
2018-10-01T20:20:04.809Z,100157.83
2018-10-01T20:23:09.420Z,100161.91
2018-10-01T20:26:14.057Z,100163.41
2018-10-01T20:29:18.964Z,100159.78
2018-10-01T20:32:23.215Z,100159.88
2018-10-01T20:35:27.754Z,100160.91
2018-10-01T20:38:32.475Z,100156.72
2018-10-01T20:41:37.389Z,100164.77
2018-10-01T20:44:44.799Z,100165.45
2018-10-01T20:47:49.404Z,100171.57
2018-10-01T20:50:53.778Z,100172.95
2018-10-01T20:53:58.250Z,100172.37
2018-10-01T20:57:03.694Z,100171.70
2018-10-01T21:00:08.287Z,100176.52
2018-10-01T21:03:12.881Z,100178.51
2018-10-01T21:06:17.451Z,100182.16
2018-10-01T21:09:22.055Z,100185.02
2018-10-01T21:12:26.623Z,100192.77
2018-10-01T21:15:31.209Z,100187.77
2018-10-01T21:18:35.825Z,100194.23
2018-10-01T21:21:40.395Z,100192.50
2018-10-01T21:24:44.913Z,100206.89
2018-10-01T21:27:49.411Z,100201.41
2018-10-01T21:30:53.848Z,100203.76
2018-10-01T21:33:58.355Z,100214.81
2018-10-01T21:37:02.817Z,100212.51
2018-10-01T21:40:11.312Z,100219.87
2018-10-01T21:43:15.835Z,100208.70
2018-10-01T21:46:20.320Z,100220.58
2018-10-01T21:49:24.912Z,100201.20
2018-10-01T21:52:30.483Z,100212.55
2018-10-01T21:55:35.053Z,100212.17
2018-10-01T21:58:39.531Z,100209.52
2018-10-01T22:01:44.155Z,100212.31
2018-10-01T22:04:48.692Z,100210.09
2018-10-01T22:07:53.228Z,100214.72
2018-10-01T22:10:57.775Z,100220.39
2018-10-01T22:14:02.363Z,100217.20
2018-10-01T22:17:07.024Z,100218.60
2018-10-01T22:20:11.557Z,100212.29
2018-10-01T22:23:16.925Z,100223.84
2018-10-01T22:26:21.434Z,100230.84
2018-10-01T22:29:26.522Z,100229.50
2018-10-01T22:32:31.066Z,100220.86
2018-10-01T22:35:35.595Z,100222.82
2018-10-01T22:38:40.116Z,100223.66
2018-10-01T22:41:44.703Z,100212.81
2018-10-01T22:44:49.172Z,100219.50
2018-10-01T22:47:53.775Z,100220.48
2018-10-01T22:50:58.417Z,100225.72
2018-10-01T22:54:03.366Z,100230.58
2018-10-01T22:57:07.967Z,100232.20
2018-10-01T23:00:12.403Z,100231.88
2018-10-01T23:03:16.889Z,100231.05
2018-10-01T23:06:21.382Z,100238.88
2018-10-01T23:09:25.886Z,100236.72
2018-10-01T23:12:30.615Z,100241.39
2018-10-01T23:15:35.099Z,100239.59
2018-10-01T23:18:39.717Z,100240.59
2018-10-01T23:21:44.777Z,100239.44
2018-10-01T23:24:49.298Z,100237.77
2018-10-01T23:27:53.832Z,100251.58
2018-10-01T23:30:58.453Z,100258.92
2018-10-01T23:34:02.953Z,100262.89
2018-10-01T23:37:07.501Z,100258.06
2018-10-01T23:40:12.013Z,100265.07
2018-10-01T23:43:16.436Z,100266.56
2018-10-01T23:46:21.019Z,100255.55
2018-10-01T23:49:25.502Z,100254.70
2018-10-01T23:52:30.131Z,100252.20
2018-10-01T23:55:34.578Z,100236.19
2018-10-01T23:58:39.269Z,100243.70
